Airfield :
LOGIN :

Register | Disclaimer

   EN    FR    IT 

 










Legend :    VFR   Marginal VFR   IFR   Intensive IFR   Very Intensive IFR
Visi :
Ceiling :
>= 8 km
>= 3000ft
5 to 8 km
1000 to 3000 ft
1500m to 5 km
500 to 1000 ft
800 to 1500m
200 to 500 ft
< 800m
< 200 ft
Symbols :   Thunderstorms  Fog  Heavy snow  Heavy precipitations  Wind > 20 kt
SIGMETs :     Misc.  Thunderstorms  Icing  Turbulence  Mountain Waves  Volcanic Ashes







- Airport Elevation : 82 ft
- IATA code : ALG


DAAG - Alger Houari Boumedienne

CURRENT METAR :
  • 240230Z 24003KT 210V280 9999 SCT016 SCT070 08/05 Q1027

EXPIRED METARs :
  • 240200Z 32004KT 9999 FEW020 07/04 Q1027
  • 240130Z 28005KT 9999 FEW020 06/04 Q1027
  • 240100Z 30003KT 9999 SCT020 07/04 Q1027
  • 240030Z 26001KT 9999 BKN015 07/04 Q1027
  • 240000Z VRB02KT 9999 BKN015 07/05 Q1027

TAF TAF DAAG
Valid from the 24 at 00:00 until the 25 at 00:00 UTC


232300Z 2400/2424 VRB02KT 9999 SCT015
PROB40 2400/2408 3000 BR BKN015
PROB30
TEMPO 2403/2408 0800 FG BKN008
BECMG 2407/2411 03010KT
PROB40
TEMPO 2415/2421 FEW023TCU
BECMG 2419/2422 VRB02KT
No reported NOTAMs for that airfield.



MET'MAP, your aeronautical weather chart ! - Copyright ORBIFLY December 2007 - Disclaimer

ORBIFLY MET'MAP TEAM :

Programming & Development : Alexandra Zaïnal
Concept & Development : Baudouin d'Aumeries
Co-Development & Prog : Marc-Olivier Méhu
Technical & hardware support : Manuel Goepfert

Contact : metmap@orbifly.com




SOURCES & CREDITS :

   NOAA